createdAt,value
2023-03-17T00:00:52.181Z,81.57
2023-03-17T00:03:25.571Z,81.87
2023-03-17T00:05:56.771Z,81.63
2023-03-17T00:08:28.415Z,82.19
2023-03-17T00:11:00.497Z,81.64
2023-03-17T00:13:31.102Z,81.69
2023-03-17T00:16:04.400Z,81.91
2023-03-17T00:18:35.545Z,81.38
2023-03-17T00:21:04.916Z,81.65
2023-03-17T00:23:35.300Z,82.32
2023-03-17T00:26:07.477Z,82.02
2023-03-17T00:28:37.314Z,82.60
2023-03-17T00:31:16.701Z,82.55
2023-03-17T00:33:48.055Z,83.24
2023-03-17T00:36:20.497Z,83.54
2023-03-17T00:38:49.912Z,83.85
2023-03-17T00:41:22.389Z,84.10
2023-03-17T00:43:52.176Z,83.56
2023-03-17T00:46:27.521Z,83.70
2023-03-17T00:48:57.945Z,84.11
2023-03-17T00:51:27.214Z,84.66
2023-03-17T00:53:57.033Z,83.92
2023-03-17T00:56:28.935Z,83.88
2023-03-17T00:58:58.254Z,83.72
2023-03-17T01:01:28.288Z,83.72
2023-03-17T01:03:57.547Z,83.66
2023-03-17T01:06:26.956Z,84.63
2023-03-17T01:08:58.212Z,84.19
2023-03-17T01:11:30.110Z,84.33
2023-03-17T01:13:59.539Z,84.26
2023-03-17T01:16:29.054Z,84.24
2023-03-17T01:18:58.789Z,84.33
2023-03-17T01:21:28.208Z,84.15
2023-03-17T01:23:57.661Z,84.27
2023-03-17T01:26:26.975Z,84.69
2023-03-17T01:28:58.917Z,84.05
2023-03-17T01:31:28.690Z,84.23
2023-03-17T01:33:57.980Z,84.09
2023-03-17T01:36:27.265Z,84.52
2023-03-17T01:38:57.276Z,84.85
2023-03-17T01:41:26.596Z,85.04
2023-03-17T01:43:55.815Z,84.94
2023-03-17T01:46:31.391Z,85.16
2023-03-17T01:49:09.472Z,85.31
2023-03-17T01:51:44.871Z,85.83
2023-03-17T01:54:19.602Z,85.73
2023-03-17T01:56:53.234Z,85.62
2023-03-17T01:59:28.713Z,85.61
2023-03-17T02:02:05.484Z,87.03
2023-03-17T02:04:36.450Z,86.99
2023-03-17T02:07:06.434Z,86.23
2023-03-17T02:09:36.939Z,86.56
2023-03-17T02:12:10.587Z,86.32
2023-03-17T02:14:39.805Z,87.05
2023-03-17T02:17:12.088Z,87.11
2023-03-17T02:19:42.019Z,86.61
2023-03-17T02:22:14.174Z,87.08
2023-03-17T02:24:47.064Z,86.67
2023-03-17T02:27:19.740Z,86.73
2023-03-17T02:29:50.670Z,87.00
2023-03-17T02:32:22.029Z,87.32
2023-03-17T02:34:52.152Z,88.09
2023-03-17T02:37:24.144Z,87.32
2023-03-17T02:39:53.737Z,87.69
2023-03-17T02:42:23.346Z,88.01
2023-03-17T02:44:52.639Z,88.41
2023-03-17T02:47:22.542Z,88.90
2023-03-17T02:49:52.296Z,89.12
2023-03-17T02:52:24.100Z,89.15
2023-03-17T02:54:53.672Z,89.41
2023-03-17T02:57:22.911Z,88.59
2023-03-17T02:59:52.416Z,88.36
2023-03-17T03:02:21.792Z,88.67
2023-03-17T03:04:51.174Z,89.00
2023-03-17T03:07:20.415Z,88.70
2023-03-17T03:09:52.212Z,88.35
2023-03-17T03:12:21.406Z,88.07
2023-03-17T03:14:50.622Z,88.74
2023-03-17T03:17:20.275Z,89.30
2023-03-17T03:19:50.500Z,89.25
2023-03-17T03:22:19.745Z,89.64
2023-03-17T03:24:51.540Z,89.87
2023-03-17T03:27:20.756Z,90.13
2023-03-17T03:29:50.058Z,89.62
2023-03-17T03:32:19.299Z,89.62
2023-03-17T03:34:48.561Z,89.58
2023-03-17T03:37:18.096Z,90.05
2023-03-17T03:39:47.726Z,90.31
2023-03-17T03:42:19.722Z,90.35
2023-03-17T03:44:48.936Z,90.18
2023-03-17T03:47:18.139Z,90.44
2023-03-17T03:49:47.430Z,90.66
2023-03-17T03:52:16.662Z,90.63
2023-03-17T03:54:45.882Z,90.89
2023-03-17T03:57:15.440Z,91.15
2023-03-17T03:59:47.210Z,91.12
2023-03-17T04:02:17.087Z,91.47
2023-03-17T04:04:47.049Z,91.13
2023-03-17T04:07:16.678Z,90.79
2023-03-17T04:09:45.923Z,90.77
2023-03-17T04:12:15.354Z,91.01
2023-03-17T04:14:47.362Z,90.96
2023-03-17T04:17:16.893Z,91.25
2023-03-17T04:19:46.436Z,90.96
2023-03-17T04:22:16.443Z,90.98
2023-03-17T04:24:46.017Z,91.02
2023-03-17T04:27:15.538Z,90.80
2023-03-17T04:29:47.619Z,90.58
2023-03-17T04:32:17.719Z,91.12
2023-03-17T04:34:47.054Z,91.51
2023-03-17T04:37:16.711Z,91.14
2023-03-17T04:39:46.346Z,91.12
2023-03-17T04:42:15.957Z,91.25
2023-03-17T04:44:47.749Z,90.87
2023-03-17T04:47:17.162Z,90.93
2023-03-17T04:49:46.562Z,91.13
2023-03-17T04:52:15.991Z,91.15
2023-03-17T04:54:47.776Z,91.41
2023-03-17T04:57:17.024Z,91.08
2023-03-17T04:59:48.964Z,91.22
2023-03-17T05:02:18.481Z,91.12
2023-03-17T05:04:49.524Z,91.41
2023-03-17T05:07:18.812Z,91.61
2023-03-17T05:09:48.174Z,91.81
2023-03-17T05:12:18.021Z,92.06
2023-03-17T05:14:49.868Z,92.09
2023-03-17T05:17:19.148Z,93.04
2023-03-17T05:19:48.361Z,93.13
2023-03-17T05:22:17.617Z,92.92
2023-03-17T05:24:47.650Z,92.96
2023-03-17T05:27:16.999Z,93.12
2023-03-17T05:29:46.279Z,93.75
2023-03-17T05:32:18.351Z,93.74
2023-03-17T05:34:47.891Z,93.88
2023-03-17T05:37:17.501Z,93.81
2023-03-17T05:39:46.960Z,93.82
2023-03-17T05:42:16.384Z,94.43
2023-03-17T05:44:45.619Z,94.95
2023-03-17T05:47:14.976Z,94.38
2023-03-17T05:49:46.891Z,94.62
2023-03-17T05:52:16.154Z,94.90
2023-03-17T05:54:47.970Z,94.77
2023-03-17T05:57:17.314Z,95.23
2023-03-17T05:59:46.904Z,95.12
2023-03-17T06:02:17.573Z,95.80
2023-03-17T06:04:49.759Z,95.35
2023-03-17T06:07:18.999Z,95.32
2023-03-17T06:09:48.193Z,95.84
2023-03-17T06:12:17.419Z,95.77
2023-03-17T06:14:46.667Z,95.64
2023-03-17T06:17:15.886Z,96.03
2023-03-17T06:19:46.430Z,97.22
2023-03-17T06:22:19.151Z,97.15
2023-03-17T06:24:48.384Z,96.99
2023-03-17T06:27:17.606Z,97.01
2023-03-17T06:29:47.492Z,97.13
2023-03-17T06:32:20.630Z,97.10
2023-03-17T06:34:50.195Z,97.02
2023-03-17T06:37:22.386Z,96.79
2023-03-17T06:39:51.897Z,97.06
2023-03-17T06:42:21.131Z,96.68
2023-03-17T06:44:52.470Z,97.21
2023-03-17T06:47:24.794Z,96.83
2023-03-17T06:49:56.022Z,97.33
2023-03-17T06:52:27.867Z,97.40
2023-03-17T06:54:57.201Z,96.95
2023-03-17T06:57:27.016Z,97.43
2023-03-17T06:59:56.678Z,96.29
2023-03-17T07:02:25.950Z,97.21
2023-03-17T07:04:57.774Z,96.63
2023-03-17T07:07:29.867Z,96.32
2023-03-17T07:09:59.520Z,96.17
2023-03-17T07:12:28.892Z,96.06
2023-03-17T07:14:58.170Z,96.57
2023-03-17T07:17:28.131Z,96.07
2023-03-17T07:19:57.388Z,96.19
2023-03-17T07:22:29.494Z,96.36
2023-03-17T07:24:58.927Z,95.68
2023-03-17T07:27:28.157Z,95.91
2023-03-17T07:29:57.388Z,96.07
2023-03-17T07:32:26.721Z,95.71
2023-03-17T07:34:56.117Z,95.70
2023-03-17T07:37:25.392Z,94.89
2023-03-17T07:39:57.266Z,95.62
2023-03-17T07:42:28.934Z,94.68
2023-03-17T07:44:58.165Z,94.81
2023-03-17T07:47:27.497Z,94.66
2023-03-17T07:49:57.331Z,94.58
2023-03-17T07:52:26.680Z,95.08
2023-03-17T07:54:58.516Z,94.74
2023-03-17T07:57:28.687Z,93.95
2023-03-17T07:59:57.890Z,93.07
2023-03-17T08:02:27.164Z,92.19
2023-03-17T08:04:56.988Z,91.99
2023-03-17T08:07:26.248Z,91.97
2023-03-17T08:09:58.117Z,91.86
2023-03-17T08:12:27.381Z,90.82
2023-03-17T08:14:56.642Z,90.65
2023-03-17T08:17:27.452Z,90.37
2023-03-17T08:19:56.711Z,89.63
2023-03-17T08:22:26.553Z,88.70
2023-03-17T08:24:58.615Z,87.49
2023-03-17T08:27:27.852Z,86.69
2023-03-17T08:29:57.067Z,86.61
2023-03-17T08:32:26.431Z,85.88
2023-03-17T08:34:56.664Z,86.33
2023-03-17T08:37:26.041Z,86.83
2023-03-17T08:39:57.884Z,83.86
2023-03-17T08:42:27.171Z,84.21
2023-03-17T08:44:56.379Z,85.06
2023-03-17T08:47:25.853Z,85.49
2023-03-17T08:49:56.259Z,84.01
2023-03-17T08:52:26.113Z,83.33
2023-03-17T08:54:58.284Z,83.85
2023-03-17T08:57:28.135Z,83.52
2023-03-17T08:59:57.534Z,85.97
2023-03-17T09:02:26.804Z,85.55
2023-03-17T09:04:56.004Z,85.79
2023-03-17T09:07:25.400Z,86.84
2023-03-17T09:09:54.619Z,84.06
2023-03-17T09:12:26.497Z,81.73
2023-03-17T09:14:56.115Z,82.65
2023-03-17T09:17:25.476Z,85.13
2023-03-17T09:19:54.708Z,83.93
2023-03-17T09:22:23.944Z,82.14
2023-03-17T09:24:53.271Z,81.42
2023-03-17T09:27:22.539Z,83.51
2023-03-17T09:29:54.362Z,84.53
2023-03-17T09:32:23.576Z,83.02
2023-03-17T09:34:53.220Z,84.48
2023-03-17T09:37:22.812Z,85.50
2023-03-17T09:39:52.666Z,82.87
2023-03-17T09:42:44.544Z,82.61
2023-03-17T09:45:25.631Z,81.70
2023-03-17T09:48:05.968Z,81.74
2023-03-17T09:50:41.843Z,81.86
2023-03-17T09:53:19.116Z,82.38
2023-03-17T09:55:52.881Z,81.19
2023-03-17T09:58:28.395Z,80.07
2023-03-17T10:01:00.724Z,79.51
2023-03-17T10:03:30.283Z,75.78
2023-03-17T10:06:17.291Z,77.19
2023-03-17T10:08:52.566Z,78.15
2023-03-17T10:11:32.851Z,76.89
2023-03-17T10:14:05.906Z,78.17
2023-03-17T10:16:46.345Z,78.12
2023-03-17T10:19:23.898Z,80.21
2023-03-17T10:21:58.865Z,79.33
2023-03-17T10:24:30.864Z,78.07
2023-03-17T10:27:03.809Z,77.24
2023-03-17T10:29:34.155Z,78.15
2023-03-17T10:32:06.166Z,79.02
2023-03-17T10:34:38.164Z,77.65
2023-03-17T10:37:09.719Z,77.75
2023-03-17T10:39:46.356Z,76.60
2023-03-17T10:42:22.756Z,76.75
2023-03-17T10:44:56.768Z,76.56
2023-03-17T10:47:33.790Z,76.27
2023-03-17T10:50:20.422Z,78.44
2023-03-17T10:52:52.161Z,76.65
2023-03-17T10:55:24.595Z,76.44
2023-03-17T10:57:57.204Z,76.26
2023-03-17T11:00:27.694Z,75.51
2023-03-17T11:03:02.368Z,76.90
2023-03-17T11:05:33.012Z,78.20
2023-03-17T11:08:11.461Z,76.18
2023-03-17T11:10:43.145Z,78.45
2023-03-17T11:13:12.977Z,78.97
2023-03-17T11:15:45.971Z,76.42
2023-03-17T11:18:23.604Z,76.51
2023-03-17T11:21:00.537Z,77.31
2023-03-17T11:23:48.714Z,76.38
2023-03-17T11:26:47.133Z,75.05
2023-03-17T11:29:24.480Z,76.72
2023-03-17T11:32:04.097Z,74.71
2023-03-17T11:34:53.925Z,76.61
2023-03-17T11:37:36.107Z,73.78
2023-03-17T11:40:14.602Z,71.48
2023-03-17T11:42:52.203Z,72.82
2023-03-17T11:45:29.303Z,70.90
2023-03-17T11:48:13.767Z,71.53
2023-03-17T11:50:55.105Z,73.03
2023-03-17T11:53:43.118Z,71.95
2023-03-17T11:56:19.804Z,74.39
2023-03-17T11:58:52.572Z,73.82
2023-03-17T12:01:27.213Z,72.40
2023-03-17T12:04:06.249Z,73.13
2023-03-17T12:06:43.189Z,73.17
2023-03-17T12:09:26.807Z,69.80
2023-03-17T12:11:58.401Z,69.82
2023-03-17T12:14:32.666Z,67.83
2023-03-17T12:17:07.755Z,70.72
2023-03-17T12:19:45.267Z,67.96
2023-03-17T12:22:26.602Z,69.13
2023-03-17T12:25:06.502Z,70.35
2023-03-17T12:27:43.877Z,69.99
2023-03-17T12:30:23.674Z,68.38
2023-03-17T12:32:58.840Z,67.64
2023-03-17T12:35:32.013Z,68.51
2023-03-17T12:38:08.035Z,67.73
2023-03-17T12:40:45.928Z,65.64
2023-03-17T12:43:37.129Z,68.25
2023-03-17T12:46:38.273Z,69.18
2023-03-17T12:49:36.052Z,67.16
2023-03-17T12:52:19.147Z,68.33
2023-03-17T12:54:54.085Z,68.93
2023-03-17T12:57:25.556Z,66.08
2023-03-17T13:00:02.322Z,68.72
2023-03-17T13:02:39.921Z,68.77
2023-03-17T13:05:11.904Z,69.61
2023-03-17T13:07:49.360Z,67.02
2023-03-17T13:10:40.756Z,64.70
2023-03-17T13:13:25.458Z,66.26
2023-03-17T13:16:03.794Z,67.09
2023-03-17T13:18:53.942Z,65.83
2023-03-17T13:21:29.627Z,68.96
2023-03-17T13:24:21.167Z,67.42
2023-03-17T13:27:01.680Z,68.95
2023-03-17T13:29:48.797Z,68.67
2023-03-17T13:32:40.869Z,69.10
2023-03-17T13:35:21.082Z,69.21
2023-03-17T13:38:10.082Z,68.62
2023-03-17T13:40:49.435Z,68.03
2023-03-17T13:43:44.110Z,66.91
2023-03-17T13:46:27.916Z,66.91
2023-03-17T13:48:59.072Z,69.24
2023-03-17T13:51:33.965Z,66.57
2023-03-17T13:54:11.586Z,67.70
2023-03-17T13:56:53.847Z,66.45
2023-03-17T13:59:37.794Z,66.44
2023-03-17T14:02:18.783Z,67.99
2023-03-17T14:04:54.478Z,67.27
2023-03-17T14:07:26.786Z,66.43
2023-03-17T14:10:01.429Z,66.45
2023-03-17T14:12:37.711Z,66.67
2023-03-17T14:15:16.472Z,67.74
2023-03-17T14:17:49.923Z,67.04
2023-03-17T14:20:24.922Z,67.67
2023-03-17T14:22:58.054Z,67.84
2023-03-17T14:25:29.974Z,68.09
2023-03-17T14:28:00.956Z,65.77
2023-03-17T14:30:35.125Z,65.77
2023-03-17T14:33:08.114Z,66.46
2023-03-17T14:35:41.945Z,68.07
2023-03-17T14:38:20.003Z,66.66
2023-03-17T14:40:49.761Z,67.42
2023-03-17T14:43:19.625Z,68.37
2023-03-17T14:45:55.444Z,67.49
2023-03-17T14:48:28.977Z,68.50
2023-03-17T14:51:05.259Z,67.62
2023-03-17T14:53:35.378Z,67.52
2023-03-17T14:56:05.802Z,66.16
2023-03-17T14:58:40.160Z,65.44
2023-03-17T15:01:18.355Z,67.26
2023-03-17T15:03:57.149Z,67.79
2023-03-17T15:06:29.651Z,65.96
2023-03-17T15:09:02.774Z,66.54
2023-03-17T15:11:41.399Z,65.26
2023-03-17T15:14:21.335Z,65.98
2023-03-17T15:16:55.759Z,67.65
2023-03-17T15:19:30.072Z,65.75
2023-03-17T15:22:00.568Z,67.21
2023-03-17T15:24:38.864Z,67.70
2023-03-17T15:27:09.866Z,66.20
2023-03-17T15:29:39.070Z,67.02
2023-03-17T15:32:20.110Z,66.71
2023-03-17T15:34:49.460Z,67.21
2023-03-17T15:37:21.387Z,67.77
2023-03-17T15:39:51.357Z,67.80
2023-03-17T15:42:22.300Z,67.25
2023-03-17T15:44:51.832Z,67.67
2023-03-17T15:47:25.549Z,67.28
2023-03-17T15:49:57.394Z,68.22
2023-03-17T15:52:28.781Z,68.83
2023-03-17T15:54:59.890Z,69.49
2023-03-17T15:57:31.975Z,68.37
2023-03-17T16:00:04.159Z,69.91
2023-03-17T16:02:38.454Z,69.83
2023-03-17T16:05:18.635Z,71.06
2023-03-17T16:07:47.857Z,70.83
2023-03-17T16:10:22.512Z,70.13
2023-03-17T16:12:52.829Z,70.62
2023-03-17T16:15:24.016Z,74.33
2023-03-17T16:17:58.377Z,71.04
2023-03-17T16:20:32.741Z,70.76
2023-03-17T16:23:08.630Z,69.06
2023-03-17T16:25:38.528Z,70.03
2023-03-17T16:28:17.699Z,70.92
2023-03-17T16:30:48.724Z,70.67
2023-03-17T16:33:22.892Z,69.04
2023-03-17T16:35:53.672Z,68.99
2023-03-17T16:38:24.933Z,71.24
2023-03-17T16:40:56.312Z,71.11
2023-03-17T16:43:28.505Z,70.91
2023-03-17T16:46:00.139Z,70.88
2023-03-17T16:48:33.195Z,72.55
2023-03-17T16:51:02.566Z,73.45
2023-03-17T16:53:31.947Z,71.51
2023-03-17T16:56:01.708Z,72.96
2023-03-17T16:58:33.717Z,73.45
2023-03-17T17:01:08.973Z,73.64
2023-03-17T17:03:40.934Z,71.24
2023-03-17T17:06:12.628Z,71.08
2023-03-17T17:08:41.849Z,72.03
2023-03-17T17:11:12.975Z,72.64
2023-03-17T17:13:55.309Z,73.73
2023-03-17T17:16:27.974Z,72.25
2023-03-17T17:19:03.223Z,72.26
2023-03-17T17:21:33.932Z,73.20
2023-03-17T17:24:04.254Z,74.67
2023-03-17T17:26:33.507Z,73.87
2023-03-17T17:29:03.187Z,75.19
2023-03-17T17:31:32.476Z,77.17
2023-03-17T17:34:04.334Z,75.81
2023-03-17T17:36:33.696Z,75.41
2023-03-17T17:39:03.104Z,75.88
2023-03-17T17:41:34.056Z,75.84
2023-03-17T17:44:03.450Z,76.68
2023-03-17T17:46:32.758Z,77.90
2023-03-17T17:49:05.263Z,78.53
2023-03-17T17:51:36.516Z,80.53
2023-03-17T17:54:05.959Z,81.07
2023-03-17T17:56:38.162Z,81.81
2023-03-17T17:59:08.079Z,81.90
2023-03-17T18:01:37.383Z,83.31
2023-03-17T18:04:09.747Z,82.28
2023-03-17T18:06:39.077Z,82.56
2023-03-17T18:09:08.867Z,82.98
2023-03-17T18:11:40.357Z,82.76
2023-03-17T18:14:10.322Z,83.91
2023-03-17T18:16:40.990Z,83.48
2023-03-17T18:19:15.259Z,84.67
2023-03-17T18:21:49.467Z,83.54
2023-03-17T18:24:19.467Z,84.46
2023-03-17T18:26:48.719Z,84.61
2023-03-17T18:29:17.948Z,85.44
2023-03-17T18:31:50.215Z,84.90
2023-03-17T18:34:25.989Z,85.60
2023-03-17T18:36:58.177Z,85.96
2023-03-17T18:39:27.566Z,86.46
2023-03-17T18:41:57.249Z,86.90
2023-03-17T18:44:26.566Z,87.07
2023-03-17T18:46:55.810Z,86.42
2023-03-17T18:49:28.347Z,86.21
2023-03-17T18:51:59.602Z,85.12
2023-03-17T18:54:31.682Z,85.05
2023-03-17T18:57:01.269Z,84.40
2023-03-17T18:59:30.522Z,84.06
2023-03-17T19:01:59.847Z,83.94
2023-03-17T19:04:31.987Z,83.62
2023-03-17T19:07:04.555Z,84.15
2023-03-17T19:09:33.821Z,84.09
2023-03-17T19:12:03.150Z,83.77
2023-03-17T19:14:33.124Z,84.67
2023-03-17T19:17:02.387Z,84.75
2023-03-17T19:19:35.411Z,84.01
2023-03-17T19:22:06.270Z,84.50
2023-03-17T19:24:38.934Z,85.68
2023-03-17T19:27:08.531Z,86.94
2023-03-17T19:29:37.821Z,87.13
2023-03-17T19:32:07.241Z,87.87
2023-03-17T19:34:39.311Z,87.88
2023-03-17T19:37:08.781Z,87.78
2023-03-17T19:39:38.245Z,87.71
2023-03-17T19:42:07.639Z,86.63
2023-03-17T19:44:36.959Z,87.00
2023-03-17T19:47:08.263Z,85.82
2023-03-17T19:49:42.067Z,83.81
2023-03-17T19:52:12.344Z,83.27
2023-03-17T19:54:45.870Z,83.19
2023-03-17T19:57:16.791Z,83.03
2023-03-17T19:59:46.234Z,82.17
2023-03-17T20:02:16.960Z,81.72
2023-03-17T20:04:48.904Z,81.43
2023-03-17T20:07:18.276Z,81.55
2023-03-17T20:09:48.518Z,81.59
2023-03-17T20:12:18.283Z,81.67
2023-03-17T20:14:47.656Z,80.98
2023-03-17T20:17:17.815Z,81.66
2023-03-17T20:19:49.666Z,82.16
2023-03-17T20:22:18.959Z,82.60
2023-03-17T20:24:48.335Z,83.28
2023-03-17T20:27:18.012Z,83.71
2023-03-17T20:29:48.616Z,85.39
2023-03-17T20:32:18.260Z,87.11
2023-03-17T20:34:50.802Z,88.62
2023-03-17T20:37:20.146Z,88.78
2023-03-17T20:39:49.567Z,88.88
2023-03-17T20:42:20.549Z,88.60
2023-03-17T20:44:52.998Z,88.73
2023-03-17T20:47:22.736Z,89.03
2023-03-17T20:49:57.887Z,89.16
2023-03-17T20:52:29.953Z,89.15
2023-03-17T20:55:00.179Z,89.28
2023-03-17T20:57:29.458Z,89.26
2023-03-17T20:59:58.807Z,89.23
2023-03-17T21:02:29.045Z,89.28
2023-03-17T21:05:00.972Z,90.16
2023-03-17T21:07:30.460Z,89.97
2023-03-17T21:10:02.085Z,89.57
2023-03-17T21:12:31.818Z,89.70
2023-03-17T21:15:02.071Z,89.80
2023-03-17T21:17:31.386Z,89.36
2023-03-17T21:20:04.008Z,89.29
2023-03-17T21:22:35.689Z,89.76
2023-03-17T21:25:05.269Z,89.99
2023-03-17T21:27:38.838Z,89.24
2023-03-17T21:30:12.610Z,88.88
2023-03-17T21:32:46.620Z,89.78
2023-03-17T21:35:18.796Z,90.09
2023-03-17T21:37:50.928Z,90.57
2023-03-17T21:40:21.579Z,90.06
2023-03-17T21:42:51.150Z,90.36
2023-03-17T21:45:20.608Z,90.48
2023-03-17T21:47:49.936Z,89.66
2023-03-17T21:50:23.130Z,90.30
2023-03-17T21:52:52.547Z,90.04
2023-03-17T21:55:21.847Z,89.68
2023-03-17T21:57:51.171Z,89.82
2023-03-17T22:00:23.568Z,91.07
2023-03-17T22:02:54.918Z,89.96
2023-03-17T22:05:27.090Z,88.66
2023-03-17T22:07:56.929Z,88.69
2023-03-17T22:10:27.169Z,87.25
2023-03-17T22:12:56.474Z,87.50
2023-03-17T22:15:25.849Z,89.98
2023-03-17T22:17:56.889Z,90.12
2023-03-17T22:20:30.162Z,89.98
2023-03-17T22:22:59.713Z,90.28
2023-03-17T22:25:29.125Z,90.61
2023-03-17T22:28:01.114Z,92.33
2023-03-17T22:30:31.474Z,92.30
2023-03-17T22:33:01.076Z,92.11
2023-03-17T22:35:34.025Z,92.97
2023-03-17T22:38:03.966Z,93.29
2023-03-17T22:40:33.512Z,94.22
2023-03-17T22:43:03.360Z,94.85
2023-03-17T22:45:32.622Z,95.34
2023-03-17T22:48:06.283Z,96.61
2023-03-17T22:50:38.242Z,97.68
2023-03-17T22:53:10.362Z,97.36
2023-03-17T22:55:39.605Z,96.79
2023-03-17T22:58:09.156Z,96.42
2023-03-17T23:00:38.675Z,94.47
2023-03-17T23:03:08.679Z,94.24
2023-03-17T23:05:41.549Z,93.61
2023-03-17T23:08:11.408Z,93.38
2023-03-17T23:10:44.582Z,91.53
2023-03-17T23:13:14.660Z,93.84
2023-03-17T23:15:44.157Z,97.51
2023-03-17T23:18:14.196Z,100.00
2023-03-17T23:20:46.565Z,99.14
2023-03-17T23:23:16.448Z,98.31
2023-03-17T23:25:46.149Z,100.00
2023-03-17T23:28:15.578Z,100.00
2023-03-17T23:30:45.752Z,100.00
2023-03-17T23:33:15.452Z,100.00
2023-03-17T23:35:47.377Z,100.00
2023-03-17T23:38:17.234Z,100.00
2023-03-17T23:40:46.735Z,100.00
2023-03-17T23:43:16.180Z,100.00
2023-03-17T23:45:45.609Z,100.00
2023-03-17T23:48:15.194Z,100.00
2023-03-17T23:50:47.092Z,100.00
2023-03-17T23:53:16.902Z,100.00
2023-03-17T23:55:46.832Z,100.00
2023-03-17T23:58:16.789Z,100.00
